Flood From: 24-02-2018 06:00 Until: 25-02-2018 06:00 warning for: Flood Level: Yellow info button

Although rather usual in this region, locally or potentially dangerous phenomena are expected. (such as local winds, summer thunderstorms, rising streams or high waves) Be aware and pay attention to the latest weather updates, especially if you carry out activities exposed to weather or close to a stream or shoreline. 


Meteo18 Weather Cam more information Meteo18 Weather Cam


Thunder radar more information blitzortung!


Rain radar more information rain snow radar


Visit our other weather sites:

Template documentation
and downloads

And another site



Weather Underground History page Text

Daily Summary for January 6, 2017 Units:  English    Metric   Both
« Previous Day
Next Day »
Daily Weekly Monthly Yearly Custom
  High: Low: Average:
Temperature: TemperatureC °F -4.6 °F -2.2 °F
Dew Point: DewpointC °F -6.3 °F -4.3 °F
Humidity: Humidity % 63 % 86 %
Wind Speed: WindSpeedKMH mph 0.0 mph 4 mph
Wind Gust: WindSpeedGustKMH mph - -
Wind:- - East
Pressure: PressurehPa in 1036.1 in -
Precipitation: 0.0 in    
Historical Graphs
 
 
Tabular Data for January 6, 2017
Time Temperature Dew Point Pressure Wind Wind Speed Wind Gust Humidity Rainfall Rate (Hourly)
TemperatureC °F DewpointC °F PressurehPa in Calm     Humidity % HourlyPrecipMM in
00:02 0.1 °F -0.5 °F 1036.5 in NE 6.4 mph 11.3 mph 96 % 0.0 in
00:07 0.1 °F -0.5 °F 1036.5 in NNW 1.6 mph 11.3 mph 96 % 0.0 in
00:12 -0.1 °F -0.7 °F 1036.5 in NNE 1.6 mph 11.3 mph 96 % 0.0 in
00:17 -0.1 °F -0.7 °F 1036.5 in NNE 1.6 mph 8.0 mph 96 % 0.0 in
00:22 0.0 °F -0.6 °F 1036.5 in North 1.6 mph 11.3 mph 96 % 0.0 in
00:32 -0.2 °F -0.8 °F 1036.5 in NE 1.6 mph 11.3 mph 96 % 0.0 in
00:42 -0.4 °F -1.0 °F 1036.5 in NNW 1.6 mph 6.4 mph 96 % 0.0 in
00:47 -0.4 °F -1.0 °F 1036.5 in NNE 8.0 mph 8.0 mph 96 % 0.0 in
00:52 -0.5 °F -1.1 °F 1036.5 in NNW 3.2 mph 9.7 mph 96 % 0.0 in
00:57 -0.6 °F -1.2 °F 1036.5 in North 3.2 mph 9.7 mph 96 % 0.0 in
01:02 -0.6 °F -1.2 °F 1036.5 in NE 4.8 mph 9.7 mph 96 % 0.0 in
01:07 -0.6 °F -1.2 °F 1036.5 in NNW 3.2 mph 8.0 mph 96 % 0.0 in
01:12 -0.7 °F -1.3 °F 1036.5 in NE 9.7 mph 9.7 mph 96 % 0.0 in
01:17 -0.7 °F -1.3 °F 1036.5 in NNE 3.2 mph 11.3 mph 96 % 0.0 in
01:22 -0.8 °F -1.4 °F 1036.5 in North 4.8 mph 11.3 mph 96 % 0.0 in
01:32 -0.9 °F -1.5 °F 1036.5 in NE 4.8 mph 8.0 mph 96 % 0.0 in
01:37 -0.9 °F -1.5 °F 1036.1 in NE 3.2 mph 8.0 mph 96 % 0.0 in
01:42 -1.1 °F -1.8 °F 1036.1 in Calm   8.0 mph 95 % 0.0 in
01:52 -1.3 °F -2.0 °F 1036.1 in ENE 1.6 mph 4.8 mph 95 % 0.0 in
01:57 -1.4 °F -2.1 °F 1036.1 in ENE 1.6 mph 4.8 mph 95 % 0.0 in
02:02 -1.6 °F -2.3 °F 1036.1 in Calm   3.2 mph 95 % 0.0 in
02:07 -1.8 °F -2.5 °F 1036.1 in Calm   3.2 mph 95 % 0.0 in
02:12 -1.9 °F -2.6 °F 1036.1 in Calm   3.2 mph 95 % 0.0 in
02:17 -2.1 °F -2.7 °F 1036.5 in Calm   1.6 mph 96 % 0.0 in
02:22 -2.2 °F -2.8 °F 1036.5 in Calm   1.6 mph 96 % 0.0 in
02:27 -2.2 °F -2.8 °F 1036.5 in Calm   1.6 mph 96 % 0.0 in
02:32 -2.2 °F -2.8 °F 1036.5 in Calm   1.6 mph 96 % 0.0 in
02:37 -2.1 °F -2.7 °F 1036.1 in NNE 1.6 mph 3.2 mph 96 % 0.0 in
02:42 -2.0 °F -2.6 °F 1036.5 in NNE 1.6 mph 4.8 mph 96 % 0.0 in
02:47 -2.0 °F -2.6 °F 1036.5 in NE 3.2 mph 4.8 mph 96 % 0.0 in
02:52 -2.0 °F -2.6 °F 1036.5 in ENE 1.6 mph 4.8 mph 96 % 0.0 in
02:57 -1.9 °F -2.5 °F 1036.5 in NNE 4.8 mph 4.8 mph 96 % 0.0 in
03:02 -1.9 °F -2.5 °F 1036.5 in NNE 4.8 mph 6.4 mph 96 % 0.0 in
03:07 -1.9 °F -2.5 °F 1036.5 in NE 1.6 mph 8.0 mph 96 % 0.0 in
03:12 -1.9 °F -2.5 °F 1036.8 in Calm   8.0 mph 96 % 0.0 in
03:17 -2.1 °F -2.8 °F 1036.8 in NNE 1.6 mph 8.0 mph 95 % 0.0 in
03:22 -2.1 °F -2.7 °F 1036.8 in Calm   6.4 mph 96 % 0.0 in
03:32 -2.3 °F -3.0 °F 1036.8 in Calm   3.2 mph 95 % 0.0 in
03:37 -2.4 °F -3.1 °F 1036.8 in North 1.6 mph 3.2 mph 95 % 0.0 in
03:42 -2.4 °F -3.0 °F 1036.8 in NNE 3.2 mph 4.8 mph 96 % 0.0 in
03:52 -2.3 °F -2.9 °F 1036.5 in ENE 3.2 mph 4.8 mph 96 % 0.0 in
03:57 -2.3 °F -2.9 °F 1036.5 in Calm   4.8 mph 96 % 0.0 in
04:02 -2.4 °F -3.0 °F 1036.5 in Calm   4.8 mph 96 % 0.0 in
04:07 -2.6 °F -3.1 °F 1036.5 in NNE 1.6 mph 4.8 mph 96 % 0.0 in
04:12 -2.6 °F -3.1 °F 1036.5 in NNE 1.6 mph 3.2 mph 96 % 0.0 in
04:17 -2.6 °F -3.1 °F 1036.5 in Calm   4.8 mph 96 % 0.0 in
04:22 -2.8 °F -3.3 °F 1036.8 in Calm   4.8 mph 96 % 0.0 in
04:27 -2.8 °F -3.3 °F 1036.8 in NNW 1.6 mph 3.2 mph 96 % 0.0 in
04:37 -2.8 °F -3.3 °F 1036.8 in Calm   3.2 mph 96 % 0.0 in
04:42 -2.9 °F -3.4 °F 1036.8 in NNE 1.6 mph 3.2 mph 96 % 0.0 in
04:47 -3.1 °F -3.6 °F 1036.8 in North 1.6 mph 3.2 mph 96 % 0.0 in
04:52 -3.2 °F -3.7 °F 1036.8 in NNE 1.6 mph 1.6 mph 96 % 0.0 in
04:57 -3.3 °F -3.8 °F 1036.8 in NNE 1.6 mph 1.6 mph 96 % 0.0 in
05:02 -3.2 °F -3.7 °F 1036.8 in Calm   3.2 mph 96 % 0.0 in
05:12 -3.2 °F -3.7 °F 1036.8 in North 1.6 mph 3.2 mph 96 % 0.0 in
05:17 -3.1 °F -3.6 °F 1037.1 in North 3.2 mph 3.2 mph 96 % 0.0 in
05:22 -3.1 °F -3.6 °F 1037.1 in NNW 1.6 mph 3.2 mph 96 % 0.0 in
05:27 -3.1 °F -3.6 °F 1036.8 in NNW 1.6 mph 4.8 mph 96 % 0.0 in
05:32 -3.2 °F -3.7 °F 1037.1 in North 3.2 mph 4.8 mph 96 % 0.0 in
05:37 -3.3 °F -4.0 °F 1037.1 in NNE 3.2 mph 4.8 mph 95 % 0.0 in
05:42 -3.4 °F -4.1 °F 1037.1 in Calm   4.8 mph 95 % 0.0 in
05:52 -3.4 °F -4.1 °F 1037.1 in Calm   4.8 mph 95 % 0.0 in
05:57 -3.4 °F -4.1 °F 1037.1 in NNW 1.6 mph 4.8 mph 95 % 0.0 in
06:02 -3.4 °F -4.1 °F 1037.1 in NNE 1.6 mph 4.8 mph 95 % 0.0 in
06:07 -3.5 °F -4.2 °F 1037.1 in Calm   3.2 mph 95 % 0.0 in
06:12 -3.6 °F -4.3 °F 1037.1 in North 1.6 mph 3.2 mph 95 % 0.0 in
06:17 -3.7 °F -4.4 °F 1037.1 in Calm   3.2 mph 95 % 0.0 in
06:22 -3.7 °F -4.4 °F 1037.5 in NNW 1.6 mph 3.2 mph 95 % 0.0 in
06:27 -3.7 °F -4.4 °F 1037.5 in Calm   3.2 mph 95 % 0.0 in
06:32 -3.7 °F -4.4 °F 1037.5 in Calm   3.2 mph 95 % 0.0 in
06:42 -3.7 °F -4.4 °F 1037.1 in NNE 1.6 mph 3.2 mph 95 % 0.0 in
06:47 -3.7 °F -4.4 °F 1037.5 in North 1.6 mph 3.2 mph 95 % 0.0 in
06:57 -3.8 °F -4.6 °F 1037.5 in NNE 3.2 mph 4.8 mph 94 % 0.0 in
07:02 -3.9 °F -4.7 °F 1037.5 in Calm   4.8 mph 94 % 0.0 in
07:12 -3.9 °F -4.6 °F 1037.5 in North 3.2 mph 4.8 mph 95 % 0.0 in
07:17 -3.9 °F -4.7 °F 1037.5 in NE 1.6 mph 6.4 mph 94 % 0.0 in
07:22 -4.0 °F -4.8 °F 1037.5 in North 1.6 mph 6.4 mph 94 % 0.0 in
07:32 -4.1 °F -4.9 °F 1037.5 in Calm   6.4 mph 94 % 0.0 in
07:37 -4.2 °F -5.0 °F 1037.8 in North 1.6 mph 6.4 mph 94 % 0.0 in
07:42 -4.2 °F -5.0 °F 1037.8 in Calm   6.4 mph 94 % 0.0 in
07:47 -4.2 °F -5.0 °F 1037.8 in North 1.6 mph 3.2 mph 94 % 0.0 in
07:52 -4.3 °F -5.1 °F 1037.8 in Calm   3.2 mph 94 % 0.0 in
07:57 -4.3 °F -5.1 °F 1037.8 in Calm   3.2 mph 94 % 0.0 in
08:02 -4.4 °F -5.2 °F 1037.8 in Calm   3.2 mph 94 % 0.0 in
08:07 -4.4 °F -5.2 °F 1037.8 in Calm   1.6 mph 94 % 0.0 in
08:12 -4.5 °F -5.3 °F 1037.8 in Calm   1.6 mph 94 % 0.0 in
08:17 -4.5 °F -5.3 °F 1037.8 in Calm   1.6 mph 94 % 0.0 in
08:22 -4.6 °F -5.4 °F 1037.8 in Calm   1.6 mph 94 % 0.0 in
08:27 -4.5 °F -5.3 °F 1038.1 in Calm   3.2 mph 94 % 0.0 in
08:32 -4.5 °F -5.3 °F 1038.1 in NE 1.6 mph 3.2 mph 94 % 0.0 in
08:37 -4.4 °F -5.4 °F 1038.1 in Calm   3.2 mph 93 % 0.0 in
08:42 -4.5 °F -5.5 °F 1038.1 in Calm   4.8 mph 93 % 0.0 in
08:47 -4.6 °F -5.6 °F 1038.1 in NNE 3.2 mph 4.8 mph 93 % 0.0 in
08:52 -4.4 °F -5.4 °F 1038.1 in Calm   4.8 mph 93 % 0.0 in
08:57 -4.3 °F -5.3 °F 1038.5 in Calm   4.8 mph 93 % 0.0 in
09:02 -4.3 °F -5.4 °F 1038.5 in NNW 1.6 mph 4.8 mph 92 % 0.0 in
09:12 -4.1 °F -5.2 °F 1038.5 in Calm   4.8 mph 92 % 0.0 in
09:17 -3.9 °F -5.0 °F 1038.5 in North 3.2 mph 4.8 mph 92 % 0.0 in
09:22 -3.9 °F -5.2 °F 1038.5 in NNW 1.6 mph 4.8 mph 91 % 0.0 in
09:32 -3.7 °F -5.0 °F 1038.5 in Calm   4.8 mph 91 % 0.0 in
09:37 -3.6 °F -4.9 °F 1038.5 in NNE 3.2 mph 4.8 mph 91 % 0.0 in
09:42 -3.6 °F -4.9 °F 1038.5 in North 3.2 mph 4.8 mph 91 % 0.0 in
09:47 -3.5 °F -4.8 °F 1038.5 in NNE 1.6 mph 4.8 mph 91 % 0.0 in
09:52 -3.4 °F -4.8 °F 1038.5 in NNE 1.6 mph 8.0 mph 90 % 0.0 in
09:57 -3.3 °F -4.7 °F 1038.5 in NE 3.2 mph 8.0 mph 90 % 0.0 in
10:02 -3.2 °F -4.8 °F 1038.5 in NE 3.2 mph 8.0 mph 89 % 0.0 in
10:07 -3.1 °F -4.5 °F 1038.5 in NE 1.6 mph 8.0 mph 90 % 0.0 in
10:12 -2.9 °F -4.5 °F 1038.5 in NE 1.6 mph 8.0 mph 89 % 0.0 in
10:18 -3.0 °F -4.7 °F 1038.8 in NNE 4.8 mph 11.3 mph 88 % 0.0 in
10:27 -3.0 °F -4.7 °F 1038.8 in NE 3.2 mph 11.3 mph 88 % 0.0 in
10:32 -2.9 °F -4.6 °F 1038.8 in NNW 4.8 mph 11.3 mph 88 % 0.0 in
10:37 -2.8 °F -4.5 °F 1038.8 in North 1.6 mph 12.9 mph 88 % 0.0 in
10:42 -2.8 °F -4.5 °F 1038.8 in NE 3.2 mph 12.9 mph 88 % 0.0 in
10:47 -2.7 °F -4.4 °F 1038.8 in NE 6.4 mph 12.9 mph 88 % 0.0 in
10:57 -2.4 °F -4.1 °F 1038.8 in East 3.2 mph 9.7 mph 88 % 0.0 in
11:02 -2.4 °F -4.1 °F 1038.8 in NE 4.8 mph 9.7 mph 88 % 0.0 in
11:07 -2.3 °F -4.0 °F 1038.8 in ENE 1.6 mph 8.0 mph 88 % 0.0 in
11:17 -2.3 °F -4.2 °F 1038.8 in NE 8.0 mph 9.7 mph 87 % 0.0 in
11:22 -2.2 °F -4.1 °F 1038.5 in North 4.8 mph 9.7 mph 87 % 0.0 in
11:27 -2.2 °F -4.1 °F 1038.8 in North 3.2 mph 9.7 mph 87 % 0.0 in
11:32 -2.1 °F -4.1 °F 1038.8 in NNE 9.7 mph 11.3 mph 86 % 0.0 in
11:37 -2.1 °F -4.0 °F 1038.8 in NW 1.6 mph 14.5 mph 87 % 0.0 in
11:42 -1.9 °F -3.6 °F 1038.8 in NE 4.8 mph 14.5 mph 88 % 0.0 in
11:47 -1.7 °F -3.4 °F 1038.8 in NNE 4.8 mph 12.9 mph 88 % 0.0 in
11:52 -1.7 °F -3.6 °F 1038.8 in North 1.6 mph 11.3 mph 87 % 0.0 in
11:57 -1.5 °F -3.4 °F 1038.8 in North 8.0 mph 11.3 mph 87 % 0.0 in
12:02 -1.5 °F -3.7 °F 1038.8 in NE 3.2 mph 12.9 mph 85 % 0.0 in
12:07 -1.3 °F -3.3 °F 1038.5 in NE 6.4 mph 12.9 mph 86 % 0.0 in
12:12 -1.3 °F -3.5 °F 1038.5 in NE 6.4 mph 12.9 mph 85 % 0.0 in
12:17 -1.2 °F -3.6 °F 1038.5 in NE 3.2 mph 11.3 mph 84 % 0.0 in
12:22 -1.2 °F -3.4 °F 1038.5 in NE 6.4 mph 9.7 mph 85 % 0.0 in
12:27 -1.2 °F -3.7 °F 1038.5 in NE 9.7 mph 14.5 mph 83 % 0.0 in
12:32 -1.2 °F -3.7 °F 1038.5 in NE 16.1 mph 16.1 mph 83 % 0.0 in
12:42 -1.2 °F -3.7 °F 1038.5 in NNE 14.5 mph 16.1 mph 83 % 0.0 in
12:47 -1.2 °F -3.9 °F 1038.5 in NE 12.9 mph 19.3 mph 82 % 0.0 in
12:52 -1.1 °F -3.8 °F 1038.5 in NE 11.3 mph 19.3 mph 82 % 0.0 in
12:57 -1.1 °F -3.9 °F 1038.5 in NNE 9.7 mph 19.3 mph 81 % 0.0 in
13:02 -0.9 °F -3.7 °F 1038.5 in NE 12.9 mph 19.3 mph 81 % 0.0 in
13:07 -0.8 °F -4.0 °F 1038.5 in NNE 11.3 mph 16.1 mph 79 % 0.0 in
13:12 -0.8 °F -4.0 °F 1038.5 in NE 11.3 mph 19.3 mph 79 % 0.0 in
13:17 -0.8 °F -4.0 °F 1038.1 in NNE 6.4 mph 19.3 mph 79 % 0.0 in
13:22 -0.7 °F -3.9 °F 1038.1 in NNE 12.9 mph 19.3 mph 79 % 0.0 in
13:27 -0.6 °F -3.8 °F 1038.1 in NNE 6.4 mph 16.1 mph 79 % 0.0 in
13:32 -0.7 °F -3.9 °F 1038.1 in NE 12.9 mph 16.1 mph 79 % 0.0 in
13:37 -0.6 °F -3.8 °F 1038.1 in ENE 3.2 mph 16.1 mph 79 % 0.0 in
13:42 -0.5 °F -3.7 °F 1038.1 in ENE 3.2 mph 16.1 mph 79 % 0.0 in
13:47 -0.4 °F -3.4 °F 1038.1 in NE 4.8 mph 16.1 mph 80 % 0.0 in
13:52 -0.4 °F -3.4 °F 1037.8 in NE 4.8 mph 16.1 mph 80 % 0.0 in
13:57 -0.4 °F -3.4 °F 1037.8 in Calm   16.1 mph 80 % 0.0 in
14:02 -0.3 °F -4.7 °F 1037.8 in NE 12.9 mph 16.1 mph 72 % 0.0 in
14:07 -0.4 °F -4.8 °F 1037.5 in NNE 12.9 mph 16.1 mph 72 % 0.0 in
14:12 -0.4 °F -5.4 °F 1037.5 in East 11.3 mph 19.3 mph 69 % 0.0 in
14:17 -0.2 °F -4.8 °F 1037.8 in ENE 3.2 mph 19.3 mph 71 % 0.0 in
14:22 -0.2 °F -4.8 °F 1037.8 in ENE 9.7 mph 19.3 mph 71 % 0.0 in
14:32 -0.1 °F -4.5 °F 1037.5 in NE 4.8 mph 19.3 mph 72 % 0.0 in
14:37 -0.1 °F -4.9 °F 1037.5 in NE 8.0 mph 14.5 mph 70 % 0.0 in
14:42 -0.1 °F -4.5 °F 1037.5 in NNE 6.4 mph 16.1 mph 72 % 0.0 in
14:47 0.0 °F -4.4 °F 1037.5 in Calm   16.1 mph 72 % 0.0 in
14:52 0.0 °F -4.4 °F 1037.5 in NE 6.4 mph 12.9 mph 72 % 0.0 in
14:57 0.0 °F -4.6 °F 1037.5 in NE 3.2 mph 11.3 mph 71 % 0.0 in
15:02 0.1 °F -4.9 °F 1037.1 in ENE 6.4 mph 14.5 mph 69 % 0.0 in
15:07 0.1 °F -4.7 °F 1037.1 in NE 3.2 mph 14.5 mph 70 % 0.0 in
15:12 0.1 °F -4.9 °F 1037.1 in NE 6.4 mph 12.9 mph 69 % 0.0 in
15:17 0.2 °F -4.4 °F 1037.1 in East 1.6 mph 12.9 mph 71 % 0.0 in
15:22 0.1 °F -5.1 °F 1037.1 in NNE 11.3 mph 12.9 mph 68 % 0.0 in
15:27 0.1 °F -4.9 °F 1037.1 in NNE 11.3 mph 14.5 mph 69 % 0.0 in
15:32 0.1 °F -4.9 °F 1037.5 in NE 6.4 mph 14.5 mph 69 % 0.0 in
15:42 0.1 °F -5.1 °F 1037.1 in NNE 8.0 mph 14.5 mph 68 % 0.0 in
15:47 0.1 °F -5.1 °F 1037.1 in NE 8.0 mph 14.5 mph 68 % 0.0 in
15:52 0.1 °F -5.1 °F 1037.1 in NE 4.8 mph 12.9 mph 68 % 0.0 in
15:57 0.1 °F -4.9 °F 1037.1 in ENE 6.4 mph 14.5 mph 69 % 0.0 in
16:02 0.1 °F -5.3 °F 1037.1 in NE 9.7 mph 14.5 mph 67 % 0.0 in
16:07 0.1 °F -5.5 °F 1037.1 in North 4.8 mph 14.5 mph 66 % 0.0 in
16:12 0.1 °F -5.1 °F 1037.5 in NNE 4.8 mph 14.5 mph 68 % 0.0 in
16:17 0.1 °F -5.3 °F 1037.5 in NNW 4.8 mph 14.5 mph 67 % 0.0 in
16:22 0.0 °F -6.0 °F 1037.5 in NNE 8.0 mph 14.5 mph 64 % 0.0 in
16:27 0.0 °F -6.2 °F 1037.5 in NNE 4.8 mph 16.1 mph 63 % 0.0 in
16:32 0.0 °F -5.8 °F 1037.5 in NE 6.4 mph 16.1 mph 65 % 0.0 in
16:37 0.0 °F -4.8 °F 1037.5 in NNE 4.8 mph 16.1 mph 70 % 0.0 in
16:42 -0.1 °F -4.5 °F 1037.5 in NE 6.4 mph 14.5 mph 72 % 0.0 in
16:47 -0.2 °F -4.8 °F 1037.5 in NNE 3.2 mph 11.3 mph 71 % 0.0 in
16:52 -0.3 °F -4.9 °F 1037.5 in NNE 9.7 mph 12.9 mph 71 % 0.0 in
16:57 -0.4 °F -5.0 °F 1037.5 in NE 3.2 mph 14.5 mph 71 % 0.0 in
17:07 -0.7 °F -5.1 °F 1037.5 in NNW 1.6 mph 14.5 mph 72 % 0.0 in
17:12 -0.8 °F -5.4 °F 1037.5 in NNE 6.4 mph 14.5 mph 71 % 0.0 in
17:17 -0.9 °F -5.3 °F 1037.5 in NNE 3.2 mph 12.9 mph 72 % 0.0 in
17:22 -1.0 °F -5.6 °F 1037.5 in NNE 3.2 mph 12.9 mph 71 % 0.0 in
17:27 -1.1 °F -5.3 °F 1037.5 in ENE 8.0 mph 14.5 mph 73 % 0.0 in
17:37 -1.3 °F -5.5 °F 1037.5 in NNE 6.4 mph 16.1 mph 73 % 0.0 in
17:42 -1.3 °F -5.5 °F 1037.5 in North 8.0 mph 16.1 mph 73 % 0.0 in
17:47 -1.4 °F -5.6 °F 1037.5 in NNE 12.9 mph 14.5 mph 73 % 0.0 in
17:57 -1.6 °F -5.4 °F 1037.5 in North 4.8 mph 12.9 mph 75 % 0.0 in
18:02 -1.6 °F -5.6 °F 1037.1 in NE 4.8 mph 12.9 mph 74 % 0.0 in
18:12 -1.7 °F -5.7 °F 1037.1 in NE 9.7 mph 16.1 mph 74 % 0.0 in
18:22 -1.9 °F -5.6 °F 1037.1 in NE 9.7 mph 14.5 mph 76 % 0.0 in
18:32 -1.9 °F -5.6 °F 1037.1 in NE 8.0 mph 12.9 mph 76 % 0.0 in
18:42 -2.1 °F -5.8 °F 1037.1 in NE 12.9 mph 12.9 mph 76 % 0.0 in
18:47 -2.1 °F -5.6 °F 1037.1 in NNE 9.7 mph 14.5 mph 77 % 0.0 in
18:52 -2.1 °F -5.6 °F 1037.5 in NNE 9.7 mph 14.5 mph 77 % 0.0 in
19:02 -2.2 °F -5.7 °F 1037.5 in North 6.4 mph 14.5 mph 77 % 0.0 in
19:07 -2.2 °F -5.5 °F 1037.5 in NNE 11.3 mph 14.5 mph 78 % 0.0 in
19:12 -2.3 °F -5.6 °F 1037.5 in NNE 9.7 mph 14.5 mph 78 % 0.0 in
19:22 -2.3 °F -5.6 °F 1037.5 in NE 14.5 mph 16.1 mph 78 % 0.0 in
19:27 -2.3 °F -5.6 °F 1037.5 in NE 8.0 mph 19.3 mph 78 % 0.0 in
19:32 -2.4 °F -5.7 °F 1037.5 in NE 16.1 mph 19.3 mph 78 % 0.0 in
19:37 -2.4 °F -5.5 °F 1037.5 in NNE 9.7 mph 19.3 mph 79 % 0.0 in
19:47 -2.5 °F -5.6 °F 1037.5 in NE 9.7 mph 16.1 mph 79 % 0.0 in
19:57 -2.7 °F -5.7 °F 1037.5 in NE 9.7 mph 14.5 mph 80 % 0.0 in
20:02 -2.7 °F -5.7 °F 1037.5 in North 4.8 mph 14.5 mph 80 % 0.0 in
20:07 -2.9 °F -5.7 °F 1037.5 in NNE 6.4 mph 14.5 mph 81 % 0.0 in
20:17 -2.9 °F -5.5 °F 1037.5 in North 6.4 mph 17.7 mph 82 % 0.0 in
20:27 -2.8 °F -5.4 °F 1037.5 in NNE 9.7 mph 17.7 mph 82 % 0.0 in
20:32 -2.8 °F -5.6 °F 1037.5 in NE 8.0 mph 19.3 mph 81 % 0.0 in
20:37 -2.9 °F -5.5 °F 1037.5 in NNE 8.0 mph 19.3 mph 82 % 0.0 in
20:42 -2.9 °F -5.5 °F 1037.5 in NNE 9.7 mph 16.1 mph 82 % 0.0 in
20:47 -3.0 °F -5.6 °F 1037.5 in NE 4.8 mph 14.5 mph 82 % 0.0 in
20:57 -3.1 °F -5.6 °F 1037.5 in NE 1.6 mph 11.3 mph 83 % 0.0 in
21:02 -3.2 °F -5.7 °F 1037.5 in Calm   11.3 mph 83 % 0.0 in
21:12 -3.3 °F -5.6 °F 1037.5 in Calm   6.4 mph 84 % 0.0 in
21:17 -3.4 °F -5.7 °F 1037.5 in Calm   6.4 mph 84 % 0.0 in
21:27 -3.7 °F -6.0 °F 1037.5 in Calm   6.4 mph 84 % 0.0 in
21:32 -3.9 °F -6.0 °F 1037.5 in WNW 1.6 mph 3.2 mph 85 % 0.0 in
21:37 -4.1 °F -6.2 °F 1037.5 in Calm   3.2 mph 85 % 0.0 in
21:42 -4.2 °F -6.2 °F 1037.5 in WNW 1.6 mph 1.6 mph 86 % 0.0 in
21:47 -4.2 °F -6.2 °F 1037.5 in Calm   3.2 mph 86 % 0.0 in
21:57 -4.2 °F -6.2 °F 1037.5 in Calm   3.2 mph 86 % 0.0 in
22:02 -4.1 °F -6.1 °F 1037.5 in Calm   3.2 mph 86 % 0.0 in
22:07 -4.1 °F -6.1 °F 1037.5 in NW 1.6 mph 3.2 mph 86 % 0.0 in
22:12 -4.1 °F -6.1 °F 1037.5 in Calm   3.2 mph 86 % 0.0 in
22:17 -4.1 °F -6.2 °F 1037.5 in Calm   3.2 mph 85 % 0.0 in
22:22 -4.1 °F -6.1 °F 1037.5 in Calm   3.2 mph 86 % 0.0 in
22:27 -4.2 °F -6.2 °F 1037.5 in Calm   3.2 mph 86 % 0.0 in
22:37 -4.2 °F -6.2 °F 1037.5 in Calm     86 % 0.0 in
22:42 -4.2 °F -6.2 °F 1037.5 in NNW 1.6 mph 4.8 mph 86 % 0.0 in
22:52 -4.3 °F -6.3 °F 1037.5 in North 3.2 mph 6.4 mph 86 % 0.0 in
22:57 -4.3 °F -6.3 °F 1037.5 in NNW 1.6 mph 6.4 mph 86 % 0.0 in
23:02 -4.3 °F -6.3 °F 1037.5 in NNW 1.6 mph 6.4 mph 86 % 0.0 in
Meteo18
Compliments of Weather Underground - 4 mb

Script developed by  Jim McMurry - jmcmurry@mwt.net Adapted for the template by  Wim van der Kuil - Leuven-Template.eu

You find our weather info also at:

European Weather Network

Weather Underground

Equipment we use:

Weather-station
Davis Vue

Weather-program
Meteobridge

Weather-server
Raspberry PI 2 B+

Provider
1 and 1

Davis Vue

Meteobridge

Raspberry PI 2 B+

1 and 1